createdAt,value
2018-09-11T00:01:05.956Z,19.04
2018-09-11T00:03:34.284Z,18.97
2018-09-11T00:06:02.605Z,18.93
2018-09-11T00:08:30.355Z,18.94
2018-09-11T00:10:59.280Z,18.96
2018-09-11T00:13:27.030Z,19.04
2018-09-11T00:15:55.934Z,19.19
2018-09-11T00:18:23.693Z,19.32
2018-09-11T00:20:52.024Z,19.42
2018-09-11T00:23:21.228Z,19.44
2018-09-11T00:25:49.324Z,19.45
2018-09-11T00:28:17.624Z,19.45
2018-09-11T00:30:45.964Z,19.44
2018-09-11T00:33:14.289Z,19.45
2018-09-11T00:35:42.045Z,19.50
2018-09-11T00:38:10.370Z,19.52
2018-09-11T00:40:39.266Z,19.57
2018-09-11T00:43:07.578Z,19.61
2018-09-11T00:45:35.931Z,19.62
2018-09-11T00:48:04.262Z,19.64
2018-09-11T00:50:32.579Z,19.58
2018-09-11T00:53:00.899Z,19.54
2018-09-11T00:55:29.236Z,19.54
2018-09-11T00:57:57.553Z,19.55
2018-09-11T01:00:25.885Z,19.55
2018-09-11T01:02:53.985Z,19.50
2018-09-11T01:05:24.071Z,19.46
2018-09-11T01:07:51.154Z,19.37
2018-09-11T01:10:19.568Z,19.28
2018-09-11T01:12:47.800Z,19.04
2018-09-11T01:15:16.130Z,18.82
2018-09-11T01:17:44.450Z,18.71
2018-09-11T01:20:12.257Z,18.65
2018-09-11T01:22:40.536Z,18.66
2018-09-11T01:25:09.435Z,18.67
2018-09-11T01:27:37.763Z,18.66
2018-09-11T01:30:05.545Z,18.72
2018-09-11T01:32:34.712Z,18.77
2018-09-11T01:35:02.226Z,18.74
2018-09-11T01:37:31.177Z,18.64
2018-09-11T01:39:58.902Z,18.62
2018-09-11T01:42:27.825Z,18.63
2018-09-11T01:44:56.152Z,18.71
2018-09-11T01:47:24.467Z,18.79
2018-09-11T01:49:52.792Z,18.88
2018-09-11T01:52:21.128Z,18.99
2018-09-11T01:54:49.460Z,19.07
2018-09-11T01:57:17.789Z,19.14
2018-09-11T01:59:46.111Z,19.19
2018-09-11T02:02:14.432Z,19.23
2018-09-11T02:04:42.756Z,19.25
2018-09-11T02:07:11.072Z,19.28
2018-09-11T02:09:39.396Z,19.31
2018-09-11T02:12:07.133Z,19.37
2018-09-11T02:14:35.457Z,19.40
2018-09-11T02:17:03.773Z,19.41
2018-09-11T02:19:32.669Z,19.39
2018-09-11T02:22:00.404Z,19.38
2018-09-11T02:24:29.110Z,19.39
2018-09-11T02:26:57.658Z,19.38
2018-09-11T02:29:25.485Z,19.34
2018-09-11T02:31:54.298Z,19.33
2018-09-11T02:34:22.061Z,19.31
2018-09-11T02:36:50.382Z,19.30
2018-09-11T02:39:19.277Z,19.33
2018-09-11T02:41:47.606Z,19.33
2018-09-11T02:44:16.154Z,19.35
2018-09-11T02:46:44.489Z,19.33
2018-09-11T02:49:12.014Z,19.31
2018-09-11T02:51:40.938Z,19.31
2018-09-11T02:54:08.671Z,19.29
2018-09-11T02:56:36.999Z,19.29
2018-09-11T02:59:05.332Z,19.28
2018-09-11T03:01:34.245Z,19.23
2018-09-11T03:04:02.571Z,19.17
2018-09-11T03:06:30.896Z,19.14
2018-09-11T03:09:00.060Z,19.04
2018-09-11T03:11:27.574Z,18.99
2018-09-11T03:13:55.896Z,19.03
2018-09-11T03:16:23.646Z,19.10
2018-09-11T03:18:52.007Z,19.07
2018-09-11T03:21:20.864Z,19.02
2018-09-11T03:23:49.187Z,18.95
2018-09-11T03:28:45.722Z,18.89
2018-09-11T03:31:14.165Z,18.91
2018-09-11T03:33:41.906Z,18.92
2018-09-11T03:36:10.798Z,18.87
2018-09-11T03:38:39.119Z,18.85
2018-09-11T03:41:07.662Z,18.84
2018-09-11T03:43:35.759Z,18.83
2018-09-11T03:46:03.524Z,18.80
2018-09-11T03:48:32.430Z,18.71
2018-09-11T03:51:00.178Z,18.64
2018-09-11T03:53:29.090Z,18.41
2018-09-11T03:55:58.143Z,18.25
2018-09-11T03:58:25.156Z,18.22
2018-09-11T04:00:54.057Z,18.27
2018-09-11T04:03:21.810Z,18.19
2018-09-11T04:05:50.730Z,18.03
2018-09-11T04:08:19.071Z,17.93
2018-09-11T04:10:47.388Z,17.84
2018-09-11T04:13:15.719Z,17.79
2018-09-11T04:15:44.041Z,17.80
2018-09-11T04:18:12.391Z,17.79
2018-09-11T04:20:40.710Z,17.86
2018-09-11T04:23:08.461Z,17.93
2018-09-11T04:25:36.905Z,17.91
2018-09-11T04:28:05.117Z,17.88
2018-09-11T04:30:34.009Z,17.86
2018-09-11T04:33:02.345Z,17.83
2018-09-11T04:35:30.117Z,17.78
2018-09-11T04:37:59.015Z,17.81
2018-09-11T04:40:27.324Z,17.94
2018-09-11T04:42:55.102Z,18.06
2018-09-11T04:45:23.982Z,18.17
2018-09-11T04:47:51.716Z,18.25
2018-09-11T04:50:21.448Z,18.32
2018-09-11T04:52:49.782Z,18.38
2018-09-11T04:55:18.115Z,18.44
2018-09-11T04:57:46.038Z,18.44
2018-09-11T05:00:14.816Z,18.44
2018-09-11T05:02:42.709Z,18.43
2018-09-11T05:05:10.906Z,18.45
2018-09-11T05:07:39.822Z,18.46
2018-09-11T05:10:14.447Z,18.52
2018-09-11T05:12:42.769Z,18.54
2018-09-11T05:15:11.108Z,18.59
2018-09-11T05:17:38.860Z,18.66
2018-09-11T05:20:07.201Z,18.72
2018-09-11T05:22:36.163Z,18.75
2018-09-11T05:25:06.800Z,18.81
2018-09-11T05:27:35.745Z,18.81
2018-09-11T05:30:04.049Z,18.82
2018-09-11T05:32:32.656Z,18.87
2018-09-11T05:35:00.345Z,18.90
2018-09-11T05:37:28.510Z,18.89
2018-09-11T05:39:57.044Z,18.86
2018-09-11T05:42:25.149Z,18.88
2018-09-11T05:44:54.057Z,18.89
2018-09-11T05:47:21.794Z,18.90
2018-09-11T05:49:50.126Z,18.89
2018-09-11T05:52:19.023Z,18.84
2018-09-11T05:54:47.372Z,18.72
2018-09-11T05:57:15.130Z,18.72
2018-09-11T05:59:43.477Z,18.77
2018-09-11T06:02:11.808Z,18.89
2018-09-11T06:04:40.741Z,19.03
2018-09-11T06:07:08.492Z,19.14
2018-09-11T06:09:37.396Z,19.22
2018-09-11T06:12:05.730Z,19.24
2018-09-11T06:14:34.087Z,19.24
2018-09-11T06:17:02.424Z,19.25
2018-09-11T06:19:30.773Z,19.29
2018-09-11T06:21:58.511Z,19.38
2018-09-11T06:24:27.418Z,19.41
2018-09-11T06:26:55.753Z,19.50
2018-09-11T06:29:24.370Z,19.61
2018-09-11T06:31:53.343Z,19.72
2018-09-11T06:34:21.313Z,19.78
2018-09-11T06:36:49.426Z,19.86
2018-09-11T06:39:18.341Z,19.94
2018-09-11T06:41:46.704Z,20.03
2018-09-11T06:44:15.025Z,20.06
2018-09-11T06:46:42.781Z,20.08
2018-09-11T06:49:11.227Z,20.15
2018-09-11T06:51:40.022Z,20.21
2018-09-11T06:54:07.768Z,20.26
2018-09-11T06:56:36.097Z,20.29
2018-09-11T06:59:05.058Z,20.37
2018-09-11T07:01:33.883Z,20.45
2018-09-11T07:04:02.818Z,20.52
2018-09-11T07:06:31.036Z,20.53
2018-09-11T07:08:59.945Z,20.57
2018-09-11T07:11:31.872Z,20.63
2018-09-11T07:13:59.967Z,20.66
2018-09-11T07:16:28.296Z,20.71
2018-09-11T07:18:56.077Z,20.77
2018-09-11T07:21:25.008Z,20.70
2018-09-11T07:23:52.745Z,20.74
2018-09-11T07:26:21.082Z,20.70
2018-09-11T07:28:49.422Z,20.79
2018-09-11T07:31:18.555Z,20.86
2018-09-11T07:33:48.247Z,20.91
2018-09-11T07:36:16.037Z,20.96
2018-09-11T07:38:43.746Z,21.01
2018-09-11T07:41:12.646Z,21.07
2018-09-11T07:43:41.283Z,21.09
2018-09-11T07:46:09.626Z,21.08
2018-09-11T07:48:38.585Z,21.08
2018-09-11T07:51:06.315Z,21.07
2018-09-11T07:53:34.654Z,21.01
2018-09-11T07:56:02.982Z,20.95
2018-09-11T07:58:30.724Z,20.91
2018-09-11T08:00:59.962Z,20.79
2018-09-11T08:03:28.273Z,20.76
2018-09-11T08:05:56.604Z,20.68
2018-09-11T08:08:27.291Z,20.63
2018-09-11T08:10:55.626Z,20.70
2018-09-11T08:13:23.951Z,20.67
2018-09-11T08:15:52.847Z,20.69
2018-09-11T08:18:20.587Z,20.71
2018-09-11T08:20:49.496Z,20.75
2018-09-11T08:23:17.822Z,20.78
2018-09-11T08:25:45.569Z,20.82
2018-09-11T08:28:13.896Z,20.93
2018-09-11T08:30:42.809Z,21.09
2018-09-11T08:33:11.140Z,21.20
2018-09-11T08:35:39.481Z,21.31
2018-09-11T08:38:07.245Z,21.43
2018-09-11T08:40:36.661Z,21.50
2018-09-11T08:43:04.990Z,21.49
2018-09-11T08:45:34.193Z,21.45
2018-09-11T08:48:02.723Z,21.50
2018-09-11T08:50:31.068Z,21.56
2018-09-11T08:52:58.812Z,21.53
2018-09-11T08:55:28.332Z,21.55
2018-09-11T08:57:56.871Z,21.57
2018-09-11T09:00:25.591Z,21.65
2018-09-11T09:02:53.933Z,21.81
2018-09-11T09:05:23.356Z,21.90
2018-09-11T09:07:51.920Z,22.02
2018-09-11T09:10:20.276Z,22.13
2018-09-11T09:12:48.924Z,22.28
2018-09-11T09:15:17.053Z,22.41
2018-09-11T09:17:46.321Z,22.49
2018-09-11T09:20:14.901Z,22.56
2018-09-11T09:22:44.815Z,22.59
2018-09-11T09:25:12.777Z,22.58
2018-09-11T09:27:41.104Z,22.52
2018-09-11T09:30:10.056Z,22.48
2018-09-11T09:35:29.421Z,22.50
2018-09-11T09:37:57.816Z,22.60
2018-09-11T09:40:26.346Z,22.75
2018-09-11T09:42:54.685Z,22.85
2018-09-11T09:45:23.885Z,22.84
2018-09-11T09:47:52.226Z,22.79
2018-09-11T09:50:20.598Z,22.71
2018-09-11T09:52:48.925Z,22.68
2018-09-11T09:55:18.491Z,22.63
2018-09-11T09:57:48.021Z,22.58
2018-09-11T10:00:16.338Z,22.57
2018-09-11T10:02:44.670Z,22.52
2018-09-11T10:05:13.038Z,22.53
2018-09-11T10:07:41.673Z,22.51
2018-09-11T10:10:09.995Z,22.52
2018-09-11T10:12:38.339Z,22.51
2018-09-11T10:15:06.668Z,22.53
2018-09-11T10:17:35.056Z,22.52
2018-09-11T10:20:03.384Z,22.44
2018-09-11T10:22:31.702Z,22.32
2018-09-11T10:24:59.446Z,22.17
2018-09-11T10:27:28.411Z,22.19
2018-09-11T10:29:56.699Z,22.32
2018-09-11T10:32:25.065Z,22.45
2018-09-11T10:34:53.388Z,22.54
2018-09-11T10:37:21.712Z,22.49
2018-09-11T10:39:51.131Z,22.43
2018-09-11T10:42:20.775Z,22.40
2018-09-11T10:44:48.661Z,22.15
2018-09-11T10:47:16.936Z,22.03
2018-09-11T10:49:45.713Z,21.92
2018-09-11T10:52:14.032Z,21.88
2018-09-11T10:54:43.346Z,21.86
2018-09-11T10:57:11.754Z,21.74
2018-09-11T10:59:39.509Z,21.60
2018-09-11T11:02:08.948Z,21.51
2018-09-11T11:04:37.274Z,21.52
2018-09-11T11:07:05.662Z,21.60
2018-09-11T11:09:33.979Z,21.62
2018-09-11T11:12:02.297Z,21.54
2018-09-11T11:14:32.127Z,21.51
2018-09-11T11:16:58.956Z,21.49
2018-09-11T11:19:26.701Z,21.52
2018-09-11T11:21:55.630Z,21.61
2018-09-11T11:24:23.377Z,21.55
2018-09-11T11:26:52.304Z,21.64
2018-09-11T11:29:20.613Z,21.73
2018-09-11T11:31:48.940Z,21.77
2018-09-11T11:34:17.505Z,21.86
2018-09-11T11:36:45.425Z,22.01
2018-09-11T11:39:14.143Z,22.14
2018-09-11T11:41:42.476Z,22.16
2018-09-11T11:44:10.227Z,22.23
2018-09-11T11:46:39.136Z,22.26
2018-09-11T11:49:07.461Z,22.13
2018-09-11T11:51:35.788Z,22.11
2018-09-11T11:54:04.114Z,22.11
2018-09-11T11:56:33.118Z,22.10
2018-09-11T11:59:01.511Z,22.10
2018-09-11T12:01:30.911Z,22.20
2018-09-11T12:04:00.153Z,22.27
2018-09-11T12:06:28.480Z,22.40
2018-09-11T12:08:56.226Z,22.43
2018-09-11T12:11:25.630Z,22.31
2018-09-11T12:13:53.750Z,22.20
2018-09-11T12:16:21.849Z,22.16
2018-09-11T12:18:50.408Z,22.24
2018-09-11T12:21:18.960Z,22.19
2018-09-11T12:23:47.524Z,22.12
2018-09-11T12:26:16.688Z,22.23
2018-09-11T12:28:45.021Z,22.26
2018-09-11T12:31:13.569Z,22.30
2018-09-11T12:33:41.868Z,22.26
2018-09-11T12:36:10.200Z,22.26
2018-09-11T12:38:39.122Z,22.20
2018-09-11T12:41:07.431Z,22.12
2018-09-11T12:43:35.753Z,22.07
2018-09-11T12:46:05.445Z,22.04
2018-09-11T12:48:33.017Z,21.99
2018-09-11T12:51:03.435Z,21.88
2018-09-11T12:53:30.523Z,21.78
2018-09-11T12:55:59.376Z,21.87
2018-09-11T12:58:28.578Z,21.85
2018-09-11T13:00:56.702Z,21.75
2018-09-11T13:03:24.463Z,21.54
2018-09-11T13:05:54.164Z,21.53
2018-09-11T13:08:23.262Z,21.44
2018-09-11T13:10:51.029Z,21.34
2018-09-11T13:13:20.440Z,21.31
2018-09-11T13:15:49.008Z,21.26
2018-09-11T13:18:17.561Z,21.15
2018-09-11T13:20:46.342Z,21.10
2018-09-11T13:23:14.088Z,21.07
2018-09-11T13:25:43.045Z,20.88
2018-09-11T13:28:11.967Z,20.81
2018-09-11T13:30:41.590Z,20.75
2018-09-11T13:33:09.179Z,20.73
2018-09-11T13:35:37.705Z,20.73
2018-09-11T13:38:06.602Z,20.76
2018-09-11T13:40:34.953Z,20.69
2018-09-11T13:43:02.746Z,20.71
2018-09-11T13:45:31.645Z,20.60
2018-09-11T13:47:59.990Z,20.52
2018-09-11T13:50:28.607Z,20.49
2018-09-11T13:52:56.980Z,20.43
2018-09-11T13:55:25.267Z,20.34
2018-09-11T13:57:54.629Z,20.27
2018-09-11T14:00:23.529Z,20.28
2018-09-11T14:02:52.156Z,20.33
2018-09-11T14:05:20.514Z,20.36
2018-09-11T14:07:48.985Z,20.44
2018-09-11T14:10:17.329Z,20.44
2018-09-11T14:12:45.197Z,20.47
2018-09-11T14:15:13.586Z,20.51
2018-09-11T14:17:42.320Z,20.53
2018-09-11T14:20:10.217Z,20.58
2018-09-11T14:22:41.635Z,20.61
2018-09-11T14:25:08.371Z,20.60
2018-09-11T14:27:36.694Z,20.51
2018-09-11T14:30:05.610Z,20.53
2018-09-11T14:32:34.271Z,20.53
2018-09-11T14:35:02.606Z,20.53
2018-09-11T14:37:31.047Z,20.44
2018-09-11T14:39:59.375Z,20.29
2018-09-11T14:42:28.448Z,20.18
2018-09-11T14:44:57.287Z,20.08
2018-09-11T14:47:28.820Z,20.02
2018-09-11T14:49:57.159Z,20.00
2018-09-11T14:52:25.868Z,19.91
2018-09-11T14:54:54.206Z,19.91
2018-09-11T14:57:22.569Z,19.86
2018-09-11T14:59:53.347Z,19.85
2018-09-11T15:02:34.811Z,19.74
2018-09-11T15:05:03.959Z,19.79
2018-09-11T15:07:38.249Z,19.75
2018-09-11T15:10:06.597Z,19.78
2018-09-11T15:12:35.940Z,19.79
2018-09-11T15:15:04.330Z,19.80
2018-09-11T15:17:33.471Z,19.67
2018-09-11T15:20:02.669Z,19.69
2018-09-11T15:22:31.476Z,19.70
2018-09-11T15:24:58.967Z,19.68
2018-09-11T15:27:28.359Z,19.59
2018-09-11T15:29:56.704Z,19.57
2018-09-11T15:32:25.610Z,19.54
2018-09-11T15:34:53.939Z,19.51
2018-09-11T15:37:22.292Z,19.53
2018-09-11T15:39:51.084Z,19.48
2018-09-11T15:42:20.394Z,19.41
2018-09-11T15:44:49.004Z,19.47
2018-09-11T15:47:17.695Z,19.46
2018-09-11T15:49:46.020Z,19.41
2018-09-11T15:52:14.578Z,19.43
2018-09-11T15:54:43.645Z,19.51
2018-09-11T15:57:12.019Z,19.55
2018-09-11T15:59:40.338Z,19.58
2018-09-11T16:02:08.678Z,19.65
2018-09-11T16:04:37.047Z,19.70
2018-09-11T16:07:04.931Z,19.62
2018-09-11T16:09:33.124Z,19.64
2018-09-11T16:12:02.044Z,19.59
2018-09-11T16:14:31.120Z,19.58
2018-09-11T16:16:58.969Z,19.59
2018-09-11T16:19:27.061Z,19.64
2018-09-11T16:21:54.834Z,19.61
2018-09-11T16:24:23.865Z,19.60
2018-09-11T16:26:51.611Z,19.60
2018-09-11T16:29:21.233Z,19.53
2018-09-11T16:31:48.943Z,19.54
2018-09-11T16:34:18.085Z,19.62
2018-09-11T16:36:46.189Z,19.63
2018-09-11T16:39:16.395Z,19.67
2018-09-11T16:41:43.345Z,19.68
2018-09-11T16:44:11.888Z,19.71
2018-09-11T16:46:41.613Z,19.66
2018-09-11T16:49:09.128Z,19.66
2018-09-11T16:51:36.869Z,19.69
2018-09-11T16:54:05.201Z,19.73
2018-09-11T16:56:33.557Z,19.73
2018-09-11T17:01:50.965Z,19.71
2018-09-11T17:04:19.657Z,19.72
2018-09-11T17:06:48.011Z,19.70
2018-09-11T17:09:16.628Z,19.64
2018-09-11T17:11:44.387Z,19.64
2018-09-11T17:14:15.121Z,19.66
2018-09-11T17:16:44.341Z,19.65
2018-09-11T17:19:13.573Z,19.66
2018-09-11T17:21:42.121Z,19.69
2018-09-11T17:24:11.112Z,19.73
2018-09-11T17:26:39.456Z,19.76
2018-09-11T17:29:14.060Z,19.78
2018-09-11T17:31:38.361Z,19.78
2018-09-11T17:34:06.753Z,19.82
2018-09-11T17:36:35.450Z,19.81
2018-09-11T17:39:22.414Z,19.82
2018-09-11T17:44:38.100Z,19.88
2018-09-11T17:47:05.842Z,19.86
2018-09-11T17:49:34.767Z,19.88
2018-09-11T17:52:04.234Z,19.90
2018-09-11T17:54:32.707Z,19.90
2018-09-11T17:57:01.022Z,19.90
2018-09-11T17:59:29.541Z,19.89
2018-09-11T18:01:58.328Z,19.90
2018-09-11T18:04:26.628Z,19.89
2018-09-11T18:06:54.982Z,19.93
2018-09-11T18:09:23.300Z,19.92
2018-09-11T18:11:51.695Z,19.96
2018-09-11T18:14:20.060Z,19.95
2018-09-11T18:16:48.398Z,19.93
2018-09-11T18:19:16.742Z,19.93
2018-09-11T18:21:45.128Z,19.94
2018-09-11T18:24:13.934Z,19.94
2018-09-11T18:26:42.284Z,19.98
2018-09-11T18:29:10.697Z,20.00
2018-09-11T18:31:39.409Z,19.97
2018-09-11T18:34:07.746Z,20.00
2018-09-11T18:36:36.151Z,19.99
2018-09-11T18:39:04.692Z,20.01
2018-09-11T18:41:34.733Z,20.01
2018-09-11T18:44:03.555Z,20.01
2018-09-11T18:46:31.711Z,19.99
2018-09-11T18:49:00.093Z,19.99
2018-09-11T18:51:28.459Z,20.01
2018-09-11T18:53:56.793Z,20.00
2018-09-11T18:56:25.364Z,20.00
2018-09-11T18:58:53.469Z,20.01
2018-09-11T19:01:21.920Z,20.02
2018-09-11T19:09:44.376Z,19.97
2018-09-11T19:12:11.899Z,19.99
2018-09-11T19:14:41.470Z,19.99
2018-09-11T19:17:09.229Z,20.03
2018-09-11T19:19:38.155Z,20.08
2018-09-11T19:22:05.936Z,20.12
2018-09-11T19:24:37.372Z,20.15
2018-09-11T19:27:06.453Z,20.16
2018-09-11T19:32:30.675Z,20.22
2018-09-11T19:34:59.518Z,20.26
2018-09-11T19:37:27.900Z,20.29
2018-09-11T19:39:56.253Z,20.31
2018-09-11T19:42:26.520Z,20.32
2018-09-11T19:44:54.816Z,20.34
2018-09-11T19:47:23.434Z,20.37
2018-09-11T19:49:52.343Z,20.40
2018-09-11T19:52:20.715Z,20.43
2018-09-11T19:54:49.075Z,20.39
2018-09-11T19:57:18.403Z,20.43
2018-09-11T19:59:46.676Z,20.45
2018-09-11T20:02:15.010Z,20.47
2018-09-11T20:04:43.250Z,20.51
2018-09-11T20:07:12.547Z,20.55
2018-09-11T20:09:40.870Z,20.58
2018-09-11T20:12:09.187Z,20.60
2018-09-11T20:14:36.930Z,20.65
2018-09-11T20:17:05.264Z,20.70
2018-09-11T20:19:34.190Z,20.73
2018-09-11T20:22:02.208Z,20.81
2018-09-11T20:24:30.256Z,20.85
2018-09-11T20:26:59.507Z,20.91
2018-09-11T20:29:27.854Z,20.93
2018-09-11T20:31:56.183Z,21.01
2018-09-11T20:34:23.931Z,21.04
2018-09-11T20:36:52.275Z,21.07
2018-09-11T20:39:21.301Z,21.10
2018-09-11T20:41:50.421Z,21.14
2018-09-11T20:44:18.204Z,21.17
2018-09-11T20:46:47.093Z,21.18
2018-09-11T20:49:15.411Z,21.19
2018-09-11T20:51:44.694Z,21.20
2018-09-11T20:54:13.022Z,21.19
2018-09-11T20:56:41.333Z,21.22
2018-09-11T20:59:09.101Z,21.24
2018-09-11T21:01:37.439Z,21.28
2018-09-11T21:04:05.775Z,21.30
2018-09-11T21:06:34.690Z,21.27
2018-09-11T21:09:03.014Z,21.25
2018-09-11T21:11:31.329Z,21.18
2018-09-11T21:13:59.625Z,21.17
2018-09-11T21:16:27.943Z,21.18
2018-09-11T21:18:56.256Z,21.19
2018-09-11T21:21:24.591Z,21.15
2018-09-11T21:23:52.927Z,21.12
2018-09-11T21:26:20.670Z,21.14
2018-09-11T21:28:49.583Z,21.07
2018-09-11T21:31:17.913Z,21.08
2018-09-11T21:33:45.684Z,21.10
2018-09-11T21:36:14.581Z,21.08
2018-09-11T21:38:42.338Z,21.07
2018-09-11T21:41:11.245Z,21.02
2018-09-11T21:43:39.575Z,21.02
2018-09-11T21:46:07.962Z,20.92
2018-09-11T21:48:36.236Z,20.84
2018-09-11T21:51:03.987Z,20.75
2018-09-11T21:53:32.899Z,20.68
2018-09-11T21:56:01.235Z,20.59
2018-09-11T21:58:28.970Z,20.44
2018-09-11T22:00:57.299Z,20.37
2018-09-11T22:03:26.210Z,20.33
2018-09-11T22:05:54.533Z,20.31
2018-09-11T22:08:22.863Z,20.28
2018-09-11T22:10:50.598Z,20.22
2018-09-11T22:13:18.981Z,20.03
2018-09-11T22:15:47.248Z,19.91
2018-09-11T22:18:16.110Z,19.74
2018-09-11T22:20:43.861Z,19.62
2018-09-11T22:23:12.763Z,19.49
2018-09-11T22:25:40.510Z,19.35
2018-09-11T22:28:09.427Z,19.25
2018-09-11T22:30:37.747Z,19.08
2018-09-11T22:33:06.053Z,19.00
2018-09-11T22:35:33.794Z,18.94
2018-09-11T22:38:02.113Z,18.94
2018-09-11T22:40:30.639Z,18.95
2018-09-11T22:42:58.819Z,18.92
2018-09-11T22:45:27.328Z,18.93
2018-09-11T22:47:56.024Z,18.91
2018-09-11T22:50:24.347Z,18.93
2018-09-11T22:52:52.662Z,18.94
2018-09-11T22:55:20.993Z,18.93
2018-09-11T22:57:48.791Z,18.90
2018-09-11T23:00:17.066Z,18.91
2018-09-11T23:02:45.959Z,18.90
2018-09-11T23:05:14.278Z,18.89
2018-09-11T23:07:42.596Z,18.87
2018-09-11T23:10:10.923Z,18.88
2018-09-11T23:12:39.239Z,18.86
2018-09-11T23:15:07.557Z,18.87
2018-09-11T23:17:35.892Z,18.86
2018-09-11T23:20:03.619Z,18.86
2018-09-11T23:22:32.527Z,18.82
2018-09-11T23:25:00.842Z,18.80
2018-09-11T23:27:28.581Z,18.83
2018-09-11T23:29:57.477Z,18.87
2018-09-11T23:32:25.793Z,18.89
2018-09-11T23:34:54.109Z,18.91
2018-09-11T23:37:22.425Z,18.93
2018-09-11T23:39:50.759Z,18.98
2018-09-11T23:42:19.077Z,18.95
2018-09-11T23:44:47.394Z,19.00
2018-09-11T23:47:15.711Z,19.03
2018-09-11T23:49:44.025Z,19.04
2018-09-11T23:52:12.345Z,19.06
2018-09-11T23:54:40.663Z,19.05
2018-09-11T23:57:08.999Z,19.05
2018-09-11T23:59:36.729Z,19.08
